Time;durP1;ratioP1;P1;durP2;ratioP2;P2;SDS_P1;SDS_P2;PMS_P1;PMS_P2;Temp;Humidity;BMP_temperature;BMP_pressure;BME280_temperature;BME280_humidity;BME280_pressure;Samples;Min_cycle;Max_cycle;Signal;HPM_P1;HPM_P2
2023/05/30 00:01:57;;;;;;;;;5.50;2.00;;;;;12.51;63.09;102777.00;5002041;28;10011;-67
2023/05/30 00:04:23;;;;;;;;;5.50;4.75;;;;;12.51;63.34;102785.97;5014759;28;9878;-68
2023/05/30 00:06:51;;;;;;;;;2.00;1.50;;;;;12.48;63.50;102780.91;4989580;28;9773;-69
2023/05/30 00:09:18;;;;;;;;;5.50;3.00;;;;;12.55;63.48;102775.69;5000159;28;9973;-68
2023/05/30 00:11:45;;;;;;;;;2.00;2.00;;;;;12.55;63.55;102784.63;5013827;28;9959;-66
2023/05/30 00:14:12;;;;;;;;;6.00;3.00;;;;;12.61;62.63;102793.97;4998715;28;10647;-68
2023/05/30 00:16:38;;;;;;;;;2.50;2.50;;;;;12.59;62.82;102793.28;5001742;28;9847;-68
2023/05/30 00:19:06;;;;;;;;;6.25;3.00;;;;;12.57;62.87;102789.91;5003921;28;9847;-68
2023/05/30 00:21:33;;;;;;;;;2.50;2.50;;;;;12.57;63.02;102795.31;4990535;28;9865;-68
2023/05/30 00:24:00;;;;;;;;;3.75;3.50;;;;;12.52;62.56;102793.09;4992689;28;9902;-65
2023/05/30 00:26:26;;;;;;;;;4.00;4.00;;;;;12.44;62.53;102782.22;5004498;28;9981;-67
2023/05/30 00:28:53;;;;;;;;;0.50;0.50;;;;;12.46;62.98;102790.16;5016353;28;9865;-67
2023/05/30 00:31:20;;;;;;;;;3.25;2.00;;;;;12.45;62.62;102789.31;4999701;28;9863;-68
2023/05/30 00:33:46;;;;;;;;;2.00;2.00;;;;;12.44;62.86;102794.88;5014208;28;9778;-70
2023/05/30 00:36:16;;;;;;;;;4.75;1.00;;;;;12.48;63.34;102783.59;4998189;28;10013;-68
2023/05/30 00:38:42;;;;;;;;;5.00;2.00;;;;;12.55;62.99;102789.19;5007255;28;9704;-67
2023/05/30 00:41:09;;;;;;;;;2.75;2.00;;;;;12.48;62.69;102786.31;5001565;28;10023;-69
2023/05/30 00:43:37;;;;;;;;;4.25;4.00;;;;;12.46;63.06;102784.75;5012463;28;9855;-67
2023/05/30 00:46:04;;;;;;;;;3.00;2.50;;;;;12.48;62.83;102785.47;5007169;28;9961;-67
2023/05/30 00:48:31;;;;;;;;;5.00;3.50;;;;;12.48;62.78;102780.06;5001555;28;9931;-67
2023/05/30 00:50:58;;;;;;;;;5.00;3.50;;;;;12.44;62.62;102784.09;5013720;28;10047;-68
2023/05/30 00:53:25;;;;;;;;;3.75;3.25;;;;;12.44;63.25;102790.31;5001151;28;9968;-68
2023/05/30 00:55:52;;;;;;;;;3.00;3.00;;;;;12.47;62.78;102789.13;5003768;28;9963;-69
2023/05/30 00:58:21;;;;;;;;;2.25;2.25;;;;;12.50;62.60;102786.13;5004155;28;9997;-68
2023/05/30 01:00:49;;;;;;;;;2.75;2.75;;;;;12.52;62.64;102786.84;5023354;28;9902;-68
2023/05/30 01:03:17;;;;;;;;;5.25;2.00;;;;;12.53;62.76;102788.53;4997667;28;10026;-68
2023/05/30 01:05:44;;;;;;;;;3.75;3.75;;;;;12.51;62.35;102785.97;5006883;28;9867;-68
2023/05/30 01:08:11;;;;;;;;;4.50;4.00;;;;;12.44;61.99;102789.47;5016042;28;9925;-68
2023/05/30 01:10:38;;;;;;;;;3.50;2.50;;;;;12.46;62.68;102790.16;5003224;28;9772;-69
2023/05/30 01:13:41;;;;;;;;;2.25;2.25;;;;;12.45;62.62;102781.22;5016998;28;9866;-68
2023/05/30 01:16:16;;;;;;;;;3.75;3.75;;;;;12.38;62.49;102785.53;4987867;28;9924;-68
2023/05/30 01:18:58;;;;;;;;;4.00;3.00;;;;;12.40;62.96;102788.06;5002944;28;9847;-67
2023/05/30 01:21:27;;;;;;;;;2.25;2.25;;;;;12.43;63.39;102777.81;5001279;28;9782;-67
2023/05/30 01:24:15;;;;;;;;;5.00;3.50;;;;;12.49;63.41;102779.88;4994500;28;9816;-68
2023/05/30 01:26:48;;;;;;;;;4.25;4.25;;;;;12.49;63.06;102779.88;5016234;28;9842;-68
2023/05/30 01:29:19;;;;;;;;;4.00;3.25;;;;;12.43;63.29;102772.41;5002191;28;9792;-68
2023/05/30 01:31:46;;;;;;;;;1.75;1.50;;;;;12.48;63.42;102775.50;5017768;28;10027;-67
2023/05/30 01:34:14;;;;;;;;;2.00;2.00;;;;;12.54;63.43;102774.00;5014821;28;9984;-66
2023/05/30 01:36:44;;;;;;;;;6.25;5.25;;;;;12.52;63.17;102781.44;4997958;28;9872;-67
2023/05/30 01:39:10;;;;;;;;;2.75;2.75;;;;;12.49;63.68;102784.44;5002276;28;9854;-68
2023/05/30 01:42:02;;;;;;;;;3.75;2.00;;;;;12.49;63.51;102777.19;5006289;28;9926;-69
2023/05/30 01:44:40;;;;;;;;;1.00;1.00;;;;;12.51;63.40;102780.56;4994718;28;10615;-68
2023/05/30 01:47:31;;;;;;;;;5.00;3.50;;;;;12.47;63.33;102787.28;4994880;28;9766;-67
2023/05/30 01:50:13;;;;;;;;;6.00;5.00;;;;;12.40;63.37;102796.19;5006476;28;10037;-67
2023/05/30 01:52:43;;;;;;;;;4.00;3.75;;;;;12.37;63.65;102794.66;5001068;28;9922;-67
2023/05/30 01:55:11;;;;;;;;;4.25;4.25;;;;;12.33;63.56;102795.97;5004376;28;10055;-67
2023/05/30 01:57:46;;;;;;;;;4.00;2.00;;;;;12.23;63.73;102793.38;5003586;28;10144;-67
2023/05/30 02:00:17;;;;;;;;;2.25;1.00;;;;;12.15;63.75;102784.34;5000485;28;9891;-68
2023/05/30 02:02:44;;;;;;;;;5.50;5.50;;;;;12.15;63.82;102776.25;5013392;28;9974;-67
2023/05/30 02:05:11;;;;;;;;;4.50;2.75;;;;;12.13;64.13;102779.97;5000359;28;10042;-68
2023/05/30 02:07:38;;;;;;;;;4.75;4.00;;;;;12.18;64.29;102774.09;4999495;28;9762;-66
2023/05/30 02:10:05;;;;;;;;;5.00;5.00;;;;;12.21;64.22;102789.16;5009090;28;9928;-67
2023/05/30 02:12:34;;;;;;;;;5.00;3.25;;;;;12.27;64.04;102789.34;5016254;28;10017;-66
2023/05/30 02:15:01;;;;;;;;;4.50;4.50;;;;;12.32;64.06;102794.28;5009711;28;9902;-66
2023/05/30 02:17:27;;;;;;;;;5.75;5.25;;;;;12.32;64.10;102788.91;5002369;28;10745;-68
2023/05/30 02:19:54;;;;;;;;;6.50;5.25;;;;;12.28;64.20;102790.22;5000249;28;10043;-68
2023/05/30 02:22:20;;;;;;;;;3.50;3.50;;;;;12.30;64.34;102794.44;5005818;28;9941;-66
2023/05/30 02:24:47;;;;;;;;;5.75;5.75;;;;;12.35;64.33;102797.50;5001310;28;9973;-66
2023/05/30 02:27:14;;;;;;;;;3.25;2.75;;;;;12.33;64.38;102799.53;4999716;28;9862;-68
2023/05/30 02:29:41;;;;;;;;;6.75;3.25;;;;;12.34;64.63;102798.50;5017647;28;9821;-67
2023/05/30 02:32:07;;;;;;;;;4.50;3.25;;;;;12.37;64.51;102789.25;5008856;28;10029;-67
2023/05/30 02:34:34;;;;;;;;;5.75;5.00;;;;;12.35;64.38;102789.41;5000857;28;10748;-67
2023/05/30 02:37:02;;;;;;;;;9.00;6.00;;;;;12.29;64.32;102800.84;5016956;28;9921;-68
2023/05/30 02:39:28;;;;;;;;;5.25;4.50;;;;;12.26;64.33;102798.44;5004168;28;10056;-68
2023/05/30 02:41:55;;;;;;;;;1.75;1.75;;;;;12.28;64.20;102799.16;5004888;28;10681;-67
2023/05/30 02:44:22;;;;;;;;;4.00;4.00;;;;;12.19;63.76;102804.63;4999748;28;9946;-68
2023/05/30 02:46:50;;;;;;;;;4.00;2.00;;;;;12.18;64.58;102805.66;5014490;28;9934;-67
2023/05/30 02:49:18;;;;;;;;;6.00;5.00;;;;;12.17;64.04;102801.25;5010925;28;9847;-67
2023/05/30 02:51:47;;;;;;;;;1.00;1.00;;;;;12.16;64.31;102805.81;5000099;28;10538;-66
2023/05/30 02:54:19;;;;;;;;;2.50;2.50;;;;;12.18;64.15;102798.41;5002856;28;9821;-67
2023/05/30 02:57:08;;;;;;;;;1.25;1.25;;;;;12.10;64.20;102807.28;4995898;28;9932;-67
2023/05/30 02:59:49;;;;;;;;;6.50;3.75;;;;;12.09;64.32;102807.44;5018141;28;9849;-68
2023/05/30 03:02:16;;;;;;;;;4.75;4.25;;;;;12.08;64.07;102812.00;5006619;28;10029;-68
2023/05/30 03:04:46;;;;;;;;;5.50;5.50;;;;;12.08;64.05;102811.16;5002215;28;9886;-68
2023/05/30 03:07:18;;;;;;;;;6.00;3.50;;;;;12.12;64.45;102817.94;4997399;28;10054;-67
2023/05/30 03:09:46;;;;;;;;;7.00;3.50;;;;;12.08;63.86;102813.84;5015391;28;10822;-67
2023/05/30 03:12:14;;;;;;;;;5.25;4.00;;;;;12.01;64.03;102815.47;4997963;28;9890;-67
2023/05/30 03:14:41;;;;;;;;;4.50;4.50;;;;;12.01;64.10;102812.78;5003176;28;10038;-67
2023/05/30 03:17:08;;;;;;;;;5.00;5.00;;;;;12.06;64.63;102823.94;4996353;28;10025;-68
2023/05/30 03:19:34;;;;;;;;;5.75;5.75;;;;;12.04;63.93;102820.56;4997869;28;10633;-68
2023/05/30 03:22:05;;;;;;;;;2.50;2.50;;;;;12.01;63.93;102824.41;5014310;28;10024;-67
2023/05/30 03:24:31;;;;;;;;;5.00;2.75;;;;;11.97;64.49;102820.31;4993447;28;10735;-67
2023/05/30 03:26:58;;;;;;;;;5.25;3.50;;;;;12.00;64.54;102819.19;5012741;28;10065;-67
2023/05/30 03:29:25;;;;;;;;;9.75;6.75;;;;;11.95;64.15;102821.47;5002286;28;9875;-66
2023/05/30 03:31:52;;;;;;;;;7.50;4.00;;;;;11.91;64.26;102826.34;5006049;28;10781;-66
2023/05/30 03:34:19;;;;;;;;;7.00;5.50;;;;;11.91;64.51;102826.34;4995416;28;10099;-67
2023/05/30 03:36:46;;;;;;;;;6.00;4.50;;;;;11.91;63.75;102818.25;5013716;28;10130;-66
2023/05/30 03:39:13;;;;;;;;;7.00;4.50;;;;;11.92;63.29;102828.03;5002402;28;10274;-66
2023/05/30 03:41:40;;;;;;;;;2.50;1.50;;;;;11.90;63.31;102826.50;4995535;28;9922;-66
2023/05/30 03:44:07;;;;;;;;;7.00;4.25;;;;;11.87;63.40;102827.66;4994347;28;10110;-66
2023/05/30 03:46:33;;;;;;;;;4.00;3.00;;;;;11.84;63.89;102836.06;5003700;28;10200;-66
2023/05/30 03:49:01;;;;;;;;;5.25;3.00;;;;;11.88;63.45;102835.59;4996741;28;10133;-66
2023/05/30 03:51:27;;;;;;;;;3.00;3.00;;;;;11.91;63.68;102844.38;5017162;28;10821;-66
2023/05/30 03:53:54;;;;;;;;;4.00;4.00;;;;;11.92;63.87;102835.28;5005456;28;10147;-67
2023/05/30 03:56:20;;;;;;;;;8.00;6.25;;;;;11.94;63.49;102834.13;5007045;28;10087;-67
2023/05/30 03:58:47;;;;;;;;;4.00;3.25;;;;;11.95;63.52;102843.94;4995519;28;10126;-67
2023/05/30 04:01:14;;;;;;;;;8.00;7.00;;;;;11.92;63.55;102836.16;5025674;28;10847;-66
2023/05/30 04:03:42;;;;;;;;;5.00;4.25;;;;;11.92;63.62;102838.00;5006710;28;10225;-66
2023/05/30 04:06:10;;;;;;;;;2.50;1.50;;;;;11.90;63.50;102840.00;4996162;28;10221;-66
2023/05/30 04:08:39;;;;;;;;;7.75;7.50;;;;;11.92;63.64;102843.41;5006473;28;10099;-66
2023/05/30 04:11:07;;;;;;;;;3.00;3.00;;;;;11.90;63.43;102842.69;5000818;28;10325;-67
2023/05/30 04:13:34;;;;;;;;;4.75;4.00;;;;;11.87;63.34;102841.16;4998277;28;10092;-66
2023/05/30 04:16:02;;;;;;;;;5.25;5.25;;;;;11.85;63.50;102840.44;5016247;28;10350;-66
2023/05/30 04:18:28;;;;;;;;;3.50;3.50;;;;;11.90;63.82;102838.13;5002350;28;10104;-66
2023/05/30 04:20:55;;;;;;;;;7.50;4.50;;;;;11.85;63.18;102832.34;5002903;28;10342;-67
2023/05/30 04:23:23;;;;;;;;;5.00;5.00;;;;;11.85;63.86;102833.19;5012978;28;10327;-66
2023/05/30 04:25:49;;;;;;;;;5.75;5.75;;;;;11.90;63.66;102835.44;5010653;28;10293;-66
2023/05/30 04:28:19;;;;;;;;;4.50;4.25;;;;;11.86;62.96;102837.59;5002008;28;10984;-66
2023/05/30 04:30:49;;;;;;;;;2.50;2.50;;;;;11.79;63.36;102847.28;5001984;28;10170;-66
2023/05/30 04:33:17;;;;;;;;;4.75;3.00;;;;;11.83;63.64;102846.00;5010086;28;10170;-66
2023/05/30 04:35:44;;;;;;;;;5.50;5.50;;;;;11.89;63.35;102836.44;5009936;28;10192;-67
2023/05/30 04:38:16;;;;;;;;;3.75;3.75;;;;;11.92;63.43;102838.00;4995499;28;10165;-67
2023/05/30 04:40:42;;;;;;;;;4.00;4.00;;;;;11.93;63.39;102843.22;5000468;28;10817;-67
2023/05/30 04:43:09;;;;;;;;;5.50;3.00;;;;;11.93;62.89;102845.94;5000360;28;10158;-66
2023/05/30 04:45:36;;;;;;;;;2.00;2.00;;;;;11.94;63.18;102847.63;5002522;28;10180;-67
2023/05/30 04:48:04;;;;;;;;;4.50;2.50;;;;;12.01;62.94;102839.75;5033353;23;10843;-70
2023/05/30 04:50:31;;;;;;;;;5.75;2.75;;;;;11.99;63.03;102839.06;5050647;28;10078;-70
2023/05/30 04:52:57;;;;;;;;;5.25;3.00;;;;;11.94;63.09;102844.06;5035818;28;10171;-70
2023/05/30 04:55:25;;;;;;;;;5.00;3.50;;;;;11.97;63.03;102851.88;5060782;28;10405;-69
2023/05/30 04:57:51;;;;;;;;;6.75;3.75;;;;;11.89;62.78;102860.72;5043504;28;10975;-69
2023/05/30 05:00:20;;;;;;;;;5.00;2.50;;;;;11.92;63.07;102854.19;5071505;28;10388;-70
2023/05/30 05:02:47;;;;;;;;;7.25;5.00;;;;;11.96;63.17;102860.97;5057864;28;10157;-69
2023/05/30 05:05:14;;;;;;;;;8.50;4.00;;;;;11.98;62.39;102859.81;5050103;28;10091;-69
2023/05/30 05:07:41;;;;;;;;;3.75;2.75;;;;;12.02;62.33;102857.66;5060678;28;10063;-69
2023/05/30 05:10:10;;;;;;;;;2.75;2.75;;;;;12.04;62.43;102855.66;5064954;28;10193;-69
2023/05/30 05:12:36;;;;;;;;;6.00;5.00;;;;;12.01;62.72;102853.25;5046594;28;10044;-68
2023/05/30 05:15:03;;;;;;;;;5.75;5.75;;;;;12.04;62.78;102852.97;5061428;28;10044;-69
2023/05/30 05:17:29;;;;;;;;;4.25;2.50;;;;;12.02;63.02;102853.09;5070702;28;10090;-68
2023/05/30 05:19:56;;;;;;;;;7.00;5.50;;;;;11.98;62.52;102856.25;5071668;28;9988;-69
2023/05/30 05:22:25;;;;;;;;;2.50;2.50;;;;;11.98;62.86;102848.16;5037871;28;9979;-69
2023/05/30 05:24:51;;;;;;;;;3.00;2.75;;;;;12.04;62.99;102852.97;5051747;28;10040;-69
2023/05/30 05:27:18;;;;;;;;;4.75;4.75;;;;;12.06;62.74;102850.94;5056624;28;9939;-68
2023/05/30 05:29:44;;;;;;;;;6.75;5.75;;;;;12.04;62.42;102851.09;5063107;28;10003;-69
2023/05/30 05:32:11;;;;;;;;;7.25;7.25;;;;;12.02;62.50;102849.56;5055634;28;10685;-69
2023/05/30 05:34:37;;;;;;;;;6.25;3.50;;;;;12.03;62.43;102848.53;5053255;28;10133;-70
2023/05/30 05:37:05;;;;;;;;;7.00;6.00;;;;;12.06;62.81;102849.06;5072636;28;9989;-71
2023/05/30 05:39:32;;;;;;;;;3.50;3.50;;;;;12.12;62.95;102853.03;5052161;28;9976;-69
2023/05/30 05:41:58;;;;;;;;;5.75;4.50;;;;;12.15;62.69;102854.56;5063121;28;10025;-68
2023/05/30 05:44:25;;;;;;;;;7.00;5.50;;;;;12.09;62.46;102856.88;5049641;28;10863;-69
2023/05/30 05:46:51;;;;;;;;;6.00;3.25;;;;;12.06;62.56;102857.19;5042991;28;10087;-69
2023/05/30 05:49:18;;;;;;;;;5.00;5.00;;;;;12.06;62.67;102856.34;5030758;28;10183;-69
2023/05/30 05:51:44;;;;;;;;;3.75;2.75;;;;;12.09;62.81;102853.34;5066697;28;9974;-69
2023/05/30 05:54:11;;;;;;;;;5.00;4.00;;;;;12.15;62.64;102862.66;5053886;28;10002;-69
2023/05/30 05:56:37;;;;;;;;;5.50;3.00;;;;;12.13;62.75;102862.81;5062649;28;10095;-69
2023/05/30 05:59:04;;;;;;;;;5.75;5.50;;;;;12.16;62.49;102857.13;5053942;28;10039;-69
2023/05/30 06:01:30;;;;;;;;;8.00;6.75;;;;;12.16;62.31;102857.13;5039273;28;10103;-69
2023/05/30 06:03:57;;;;;;;;;6.75;5.50;;;;;12.19;62.33;102866.72;5052580;28;10194;-69
2023/05/30 06:06:23;;;;;;;;;4.00;1.00;;;;;12.21;62.69;102862.88;5052764;28;9989;-69
2023/05/30 06:08:50;;;;;;;;;4.50;3.50;;;;;12.29;62.67;102856.72;5057538;28;9756;-69
2023/05/30 06:11:16;;;;;;;;;5.00;5.00;;;;;12.36;62.18;102863.19;5058840;28;10152;-69
2023/05/30 06:13:43;;;;;;;;;5.25;5.00;;;;;12.45;62.34;102847.91;5071762;28;10066;-69
2023/05/30 06:16:09;;;;;;;;;9.25;5.00;;;;;12.60;62.15;102857.97;5071065;28;9922;-69
2023/05/30 06:18:36;;;;;;;;;5.00;5.00;;;;;12.70;61.22;102854.31;5053665;28;10001;-69
2023/05/30 06:21:04;;;;;;;;;6.25;5.75;;;;;12.65;61.10;102851.25;5048768;28;10738;-69
2023/05/30 06:23:31;;;;;;;;;2.75;2.75;;;;;12.58;61.71;102857.25;5051420;28;9907;-69
2023/05/30 06:25:57;;;;;;;;;4.50;2.50;;;;;12.62;62.06;102855.94;5051233;28;10042;-69
2023/05/30 06:28:24;;;;;;;;;5.50;4.25;;;;;12.68;62.07;102859.88;5051490;28;9867;-69
2023/05/30 06:30:50;;;;;;;;;7.25;4.75;;;;;12.77;61.26;102858.09;5051720;28;9733;-69
2023/05/30 06:33:17;;;;;;;;;7.00;5.00;;;;;12.81;61.76;102856.75;5051435;28;9920;-69
2023/05/30 06:35:44;;;;;;;;;5.00;5.00;;;;;12.81;61.22;102854.91;5050209;28;9750;-70
2023/05/30 06:38:10;;;;;;;;;5.00;3.25;;;;;12.76;61.54;102859.94;5049493;28;10546;-69
2023/05/30 06:40:37;;;;;;;;;6.25;3.50;;;;;12.70;61.45;102857.84;5053001;28;9813;-70
2023/05/30 06:43:03;;;;;;;;;4.75;4.00;;;;;12.72;61.14;102863.09;5035669;28;9762;-69
2023/05/30 06:45:30;;;;;;;;;3.75;2.00;;;;;12.72;61.17;102866.66;5032720;28;9847;-70
2023/05/30 06:47:56;;;;;;;;;7.00;4.50;;;;;12.67;61.26;102871.69;5051031;28;9866;-70
2023/05/30 06:50:23;;;;;;;;;3.25;2.00;;;;;12.67;60.93;102877.09;5033400;28;9855;-69
2023/05/30 06:52:49;;;;;;;;;3.00;2.00;;;;;12.65;60.99;102875.56;5070391;28;10487;-70
2023/05/30 06:55:16;;;;;;;;;3.25;3.00;;;;;12.68;61.45;102868.00;5052488;28;9874;-69
2023/05/30 06:57:44;;;;;;;;;3.25;3.25;;;;;12.77;61.03;102877.84;5070741;28;10475;-69
2023/05/30 07:00:15;;;;;;;;;2.75;2.75;;;;;12.89;60.94;102872.19;5062712;28;9823;-70
2023/05/30 07:02:41;;;;;;;;;3.25;3.25;;;;;12.97;60.64;102883.03;5049502;28;9836;-69
2023/05/30 07:05:08;;;;;;;;;5.00;3.75;;;;;13.02;60.59;102876.13;5050257;28;9874;-70
2023/05/30 07:07:35;;;;;;;;;4.50;4.00;;;;;13.11;60.76;102879.72;5049211;28;9846;-70
2023/05/30 07:10:01;;;;;;;;;5.00;5.00;;;;;13.18;60.10;102879.94;5052376;28;9858;-70
2023/05/30 07:12:28;;;;;;;;;5.00;3.25;;;;;13.16;60.40;102888.19;5068715;28;9753;-70
2023/05/30 07:14:54;;;;;;;;;7.00;4.00;;;;;13.28;60.07;102883.38;5070338;28;9836;-70
2023/05/30 07:17:21;;;;;;;;;8.25;6.75;;;;;13.32;60.09;102880.19;5070412;28;9751;-69
2023/05/30 07:19:48;;;;;;;;;6.00;6.00;;;;;13.38;58.84;102883.28;5068705;28;9845;-70
2023/05/30 07:22:14;;;;;;;;;7.00;6.00;;;;;13.34;58.72;102877.34;5049229;28;10574;-69
2023/05/30 07:24:41;;;;;;;;;8.00;5.50;;;;;13.41;59.32;102880.22;5070131;28;9663;-70
2023/05/30 07:27:07;;;;;;;;;3.50;3.25;;;;;13.44;58.83;102883.44;5070286;28;10621;-70
2023/05/30 07:29:34;;;;;;;;;2.75;2.75;;;;;13.39;59.09;102884.97;5070186;28;9666;-70
2023/05/30 07:32:01;;;;;;;;;5.00;3.00;;;;;13.31;58.23;102891.19;5067073;28;9773;-70
2023/05/30 07:34:27;;;;;;;;;6.00;6.00;;;;;13.20;58.81;102884.16;5052116;28;9849;-70
2023/05/30 07:36:54;;;;;;;;;4.50;4.00;;;;;13.17;58.76;102886.34;5070140;28;9751;-70
2023/05/30 07:39:20;;;;;;;;;3.50;3.50;;;;;13.19;59.35;102882.47;5070221;28;9934;-70
2023/05/30 07:41:46;;;;;;;;;4.25;4.25;;;;;13.22;59.57;102884.00;5053050;28;9747;-70
2023/05/30 07:44:13;;;;;;;;;6.00;4.75;;;;;13.29;59.76;102885.94;5051899;28;10575;-69
2023/05/30 07:46:40;;;;;;;;;5.00;5.00;;;;;13.30;59.67;102886.78;5070089;28;9740;-70
2023/05/30 07:49:08;;;;;;;;;5.00;5.00;;;;;13.30;59.45;102886.78;5051628;28;9762;-70
2023/05/30 07:51:36;;;;;;;;;8.50;6.75;;;;;13.35;60.04;102887.13;5069835;28;9756;-69
2023/05/30 07:54:02;;;;;;;;;5.50;5.00;;;;;13.34;60.07;102878.19;5059881;28;9973;-71
2023/05/30 07:56:29;;;;;;;;;5.75;5.75;;;;;13.39;59.74;102885.81;5059408;28;9870;-70
2023/05/30 07:58:55;;;;;;;;;11.25;7.00;;;;;13.39;59.41;102887.66;5061659;28;9766;-70
2023/05/30 08:01:22;;;;;;;;;4.75;3.25;;;;;13.39;59.46;102884.97;5031985;28;9813;-70
2023/05/30 08:03:48;;;;;;;;;4.50;4.50;;;;;13.32;59.43;102888.28;5049787;28;9772;-69
2023/05/30 08:06:15;;;;;;;;;6.00;5.75;;;;;13.39;59.75;102890.38;5031704;28;9753;-69
2023/05/30 08:08:41;;;;;;;;;4.25;4.25;;;;;13.45;59.31;102889.69;5048533;28;9676;-70
2023/05/30 08:11:08;;;;;;;;;7.00;6.00;;;;;13.44;59.63;102891.56;5049981;28;9914;-69
2023/05/30 08:13:34;;;;;;;;;4.50;4.00;;;;;13.51;59.29;102892.59;5033731;28;9735;-69
2023/05/30 08:16:01;;;;;;;;;7.25;6.50;;;;;13.53;59.16;102889.72;5065116;28;10360;-70
2023/05/30 08:18:30;;;;;;;;;8.00;6.25;;;;;13.43;59.26;102889.88;5067111;28;9842;-70
2023/05/30 08:20:56;;;;;;;;;5.00;5.00;;;;;13.51;59.26;102894.47;5049783;28;9724;-69
2023/05/30 08:23:23;;;;;;;;;1.00;1.00;;;;;13.52;59.00;102898.88;5050133;28;9665;-70
2023/05/30 08:25:50;;;;;;;;;4.75;4.75;;;;;13.51;58.55;102887.19;5067077;28;9749;-70
2023/05/30 08:28:16;;;;;;;;;9.75;5.00;;;;;13.60;58.82;102879.94;5069803;28;9819;-70
2023/05/30 08:30:50;;;;;;;;;3.75;2.75;;;;;13.57;58.78;102891.09;5069469;28;9646;-70
2023/05/30 08:33:19;;;;;;;;;6.25;5.50;;;;;13.48;58.99;102876.69;5069070;28;9808;-70
2023/05/30 08:35:46;;;;;;;;;4.75;4.00;;;;;13.54;58.92;102861.69;5031507;28;9779;-71
2023/05/30 08:38:13;;;;;;;;;7.25;5.50;;;;;13.52;59.48;102879.94;5049656;28;9752;-69
2023/05/30 08:40:42;;;;;;;;;4.00;2.00;;;;;13.55;59.67;102866.06;5049459;28;9838;-70
2023/05/30 08:43:09;;;;;;;;;5.25;3.00;;;;;13.61;59.62;102870.81;5049678;28;9852;-70
2023/05/30 08:45:37;;;;;;;;;3.00;3.00;;;;;13.65;59.86;102861.34;5041725;28;9798;-70
2023/05/30 08:48:05;;;;;;;;;2.00;2.00;;;;;13.72;60.00;102864.25;5069202;28;10434;-69
2023/05/30 08:50:36;;;;;;;;;4.25;2.75;;;;;13.70;60.04;102863.59;5069380;28;9606;-70
2023/05/30 08:53:08;;;;;;;;;3.00;3.00;;;;;13.73;60.09;102871.34;5068314;28;9685;-70
2023/05/30 08:55:41;;;;;;;;;4.00;4.00;;;;;13.75;60.39;102866.63;5065401;28;9786;-69
2023/05/30 08:58:35;;;;;;;;;5.50;3.00;;;;;13.75;60.73;102869.34;5050308;28;9665;-70
2023/05/30 09:01:02;;;;;;;;;3.00;2.00;;;;;13.79;61.01;102871.56;5072021;28;9682;-72
2023/05/30 09:03:30;;;;;;;;;5.00;5.00;;;;;13.77;61.51;102865.47;5073037;28;9588;-70
2023/05/30 09:05:58;;;;;;;;;4.00;2.50;;;;;13.82;61.42;102863.09;5068066;28;10364;-69
2023/05/30 09:08:26;;;;;;;;;5.00;4.50;;;;;13.81;61.61;102856.00;5072779;28;10408;-70
2023/05/30 09:10:58;;;;;;;;;3.75;3.75;;;;;13.82;62.18;102865.81;5071477;28;9774;-70
2023/05/30 09:13:25;;;;;;;;;4.75;3.00;;;;;13.76;62.60;102863.75;5072582;28;9502;-69
2023/05/30 09:15:52;;;;;;;;;2.75;2.75;;;;;13.78;63.16;102861.75;5065790;28;9627;-68
2023/05/30 09:18:18;;;;;;;;;3.00;3.00;;;;;13.72;63.42;102867.81;5034758;28;9682;-69
2023/05/30 09:20:45;;;;;;;;;4.50;4.50;;;;;13.70;63.97;102864.44;5052672;28;9674;-70
2023/05/30 09:23:12;;;;;;;;;5.00;3.75;;;;;13.68;63.99;102860.19;5052829;28;9654;-70
2023/05/30 09:25:42;;;;;;;;;5.25;3.50;;;;;13.72;64.10;102865.09;5053273;28;9599;-69
2023/05/30 09:28:10;;;;;;;;;5.25;3.00;;;;;13.79;64.38;102868.00;5071571;28;9691;-69
2023/05/30 09:31:09;;;;;;;;;3.75;3.00;;;;;13.81;64.09;102869.53;5072499;28;9513;-69
2023/05/30 09:33:50;;;;;;;;;3.00;3.00;;;;;13.80;64.23;102858.88;5038899;28;9505;-70
2023/05/30 09:36:22;;;;;;;;;3.50;3.50;;;;;13.80;64.64;102869.69;5046410;28;9670;-70
2023/05/30 09:39:01;;;;;;;;;3.00;3.00;;;;;13.72;64.79;102862.41;5052386;28;9675;-69
2023/05/30 09:41:28;;;;;;;;;2.00;1.00;;;;;13.71;64.90;102859.88;5052161;28;9617;-69
2023/05/30 09:43:56;;;;;;;;;6.50;2.75;;;;;13.67;65.28;102858.50;5052286;28;9521;-70
2023/05/30 09:46:30;;;;;;;;;2.50;2.00;;;;;13.72;65.79;102856.97;5059661;28;9645;-70
2023/05/30 09:48:58;;;;;;;;;6.00;2.75;;;;;13.70;65.67;102859.03;5070814;28;9433;-70
2023/05/30 09:51:25;;;;;;;;;3.25;3.25;;;;;13.65;66.15;102855.09;5070888;28;9521;-70
2023/05/30 09:54:00;;;;;;;;;3.75;2.75;;;;;13.62;66.27;102855.44;5071947;28;9536;-70
2023/05/30 09:56:32;;;;;;;;;1.75;1.25;;;;;13.68;66.47;102857.47;5051903;28;9539;-71
2023/05/30 09:59:08;;;;;;;;;2.00;2.00;;;;;13.71;66.27;102860.72;5037392;28;9534;-70
2023/05/30 10:01:40;;;;;;;;;1.00;1.00;;;;;13.68;66.54;102852.91;5072076;28;9583;-70
2023/05/30 10:04:15;;;;;;;;;3.50;3.50;;;;;13.72;66.85;102856.13;5070406;28;9450;-69
2023/05/30 10:06:54;;;;;;;;;1.00;1.00;;;;;13.77;66.75;102867.31;5064722;28;9661;-70
2023/05/30 10:09:23;;;;;;;;;3.00;3.00;;;;;13.74;66.62;102865.78;5071763;28;9367;-71
2023/05/30 10:11:50;;;;;;;;;2.00;2.00;;;;;13.76;66.55;102866.47;5071382;28;9603;-70
2023/05/30 10:14:17;;;;;;;;;2.00;2.00;;;;;13.81;66.84;102857.84;5071139;28;9508;-70
2023/05/30 10:16:51;;;;;;;;;3.00;3.00;;;;;13.82;67.17;102860.41;5052740;28;9517;-70
2023/05/30 10:19:24;;;;;;;;;3.25;3.25;;;;;13.77;67.13;102856.47;5071460;28;9445;-70
2023/05/30 10:21:54;;;;;;;;;1.75;1.75;;;;;13.69;68.05;102857.31;5070299;28;9512;-70
2023/05/30 10:24:23;;;;;;;;;0.50;0.25;;;;;13.64;68.59;102856.13;5071165;28;9583;-70
2023/05/30 10:27:03;;;;;;;;;1.00;1.00;;;;;13.66;68.62;102863.06;5065013;28;9650;-70
2023/05/30 10:29:46;;;;;;;;;4.50;4.00;;;;;13.57;68.97;102858.63;5055769;28;10308;-69
2023/05/30 10:32:18;;;;;;;;;5.25;1.75;;;;;13.65;68.97;102857.81;5071011;28;9429;-69
2023/05/30 10:34:56;;;;;;;;;1.75;1.75;;;;;13.75;68.98;102851.25;5070966;28;9463;-70
2023/05/30 10:37:24;;;;;;;;;2.75;2.75;;;;;13.88;68.18;102849.91;5036493;28;9417;-69
2023/05/30 10:40:22;;;;;;;;;3.75;3.50;;;;;13.77;66.79;102848.34;5068156;28;9605;-69
2023/05/30 10:43:15;;;;;;;;;2.00;2.00;;;;;13.74;67.66;102852.25;5051117;28;10295;-69
2023/05/30 10:46:08;;;;;;;;;1.50;1.00;;;;;13.77;67.33;102848.34;5033184;28;9622;-70
2023/05/30 10:48:50;;;;;;;;;0.75;0.75;;;;;13.73;66.98;102852.41;5051735;28;9530;-69
2023/05/30 10:51:16;;;;;;;;;1.75;1.75;;;;;13.72;67.36;102845.31;5033544;28;9530;-69
2023/05/30 10:53:47;;;;;;;;;1.00;1.00;;;;;13.77;67.56;102848.34;5053888;28;10292;-68
2023/05/30 10:56:27;;;;;;;;;1.50;1.50;;;;;13.87;67.25;102845.53;5033209;28;9620;-69
2023/05/30 10:58:53;;;;;;;;;2.50;1.00;;;;;13.88;67.25;102847.19;5050908;28;9455;-69
2023/05/30 11:01:30;;;;;;;;;2.00;1.75;;;;;13.92;67.17;102841.28;5051019;28;9516;-69
2023/05/30 11:04:04;;;;;;;;;1.00;1.00;;;;;13.98;67.16;102839.78;5051229;28;9442;-68
2023/05/30 11:06:34;;;;;;;;;2.00;2.00;;;;;14.01;67.20;102834.00;5045375;28;9522;-69
2023/05/30 11:09:05;;;;;;;;;2.33;1.00;;;;;14.00;66.83;102838.59;5070551;28;9517;-69
2023/05/30 11:11:39;;;;;;;;;1.00;1.00;;;;;14.06;67.08;102850.63;5052936;28;9383;-69
2023/05/30 11:14:08;;;;;;;;;1.00;0.50;;;;;14.04;67.27;102841.81;5070110;28;9295;-69
2023/05/30 11:16:48;;;;;;;;;1.00;1.00;;;;;14.00;67.63;102843.16;5052741;28;9379;-69
2023/05/30 11:19:15;;;;;;;;;1.00;1.00;;;;;14.03;68.00;102834.72;5059353;28;9356;-69
2023/05/30 11:21:59;;;;;;;;;1.67;1.67;;;;;14.06;67.75;102837.09;5050435;28;9291;-69
2023/05/30 11:24:27;;;;;;;;;1.00;1.00;;;;;14.06;67.67;102831.66;5049899;28;9215;-69
2023/05/30 11:27:05;;;;;;;;;1.00;0.00;;;;;14.09;67.90;102842.13;5050338;28;9286;-69
2023/05/30 11:29:32;;;;;;;;;2.00;2.00;;;;;14.12;67.39;102836.38;5050302;28;9234;-69
2023/05/30 11:31:59;;;;;;;;;1.00;1.00;;;;;14.04;67.67;102834.53;5050965;28;9367;-69
2023/05/30 11:34:26;;;;;;;;;0.00;0.00;;;;;14.06;67.35;102832.50;5033915;28;9379;-69
2023/05/30 11:36:54;;;;;;;;;1.00;1.00;;;;;14.07;67.44;102827.94;5050137;28;9311;-69
2023/05/30 11:39:22;;;;;;;;;0.00;0.00;;;;;13.94;67.34;102833.00;5048982;28;9450;-69